Time;durP1;ratioP1;P1;durP2;ratioP2;P2;SDS_P1;SDS_P2;PMS_P1;PMS_P2;Temp;Humidity;BMP_temperature;BMP_pressure;BME280_temperature;BME280_humidity;BME280_pressure;Samples;Min_cycle;Max_cycle;Signal;HPM_P1;HPM_P2
2021/03/21 00:02:13;;;;;;;22.48;17.20;;;6.40;99.90;;;;;;4858899;29;20215;-75
2021/03/21 00:04:40;;;;;;;16.83;14.82;;;6.50;99.90;;;;;;4859216;29;20256;-75
2021/03/21 00:07:08;;;;;;;18.85;15.65;;;6.50;99.90;;;;;;4858712;29;20241;-75
2021/03/21 00:09:34;;;;;;;21.58;15.73;;;6.50;99.90;;;;;;4842939;29;20180;-75
2021/03/21 00:12:01;;;;;;;18.38;14.40;;;6.50;99.90;;;;;;4858734;29;20219;-75
2021/03/21 00:14:30;;;;;;;15.95;13.45;;;6.40;99.90;;;;;;4859608;29;20267;-75
2021/03/21 00:16:58;;;;;;;16.17;13.48;;;6.40;99.90;;;;;;4858426;29;20187;-75
2021/03/21 00:19:25;;;;;;;16.60;13.75;;;6.40;99.90;;;;;;4859174;29;20214;-75
2021/03/21 00:21:51;;;;;;;22.60;14.63;;;6.30;99.90;;;;;;4858674;29;20264;-75
2021/03/21 00:24:18;;;;;;;14.40;12.00;;;6.30;99.90;;;;;;4859332;29;20301;-75
2021/03/21 00:26:49;;;;;;;15.10;13.50;;;6.30;99.90;;;;;;4858050;29;20219;-75
2021/03/21 00:29:16;;;;;;;15.77;13.15;;;6.30;99.90;;;;;;4862679;29;20851;-75
2021/03/21 00:31:42;;;;;;;15.65;13.30;;;6.30;99.90;;;;;;4861392;29;20252;-75
2021/03/21 00:34:09;;;;;;;15.40;13.80;;;6.30;99.90;;;;;;4861938;29;20310;-75
2021/03/21 00:36:36;;;;;;;15.27;13.68;;;6.20;99.90;;;;;;4862234;29;20191;-75
2021/03/21 00:39:05;;;;;;;15.15;12.60;;;6.20;99.90;;;;;;4860831;29;20227;-75
2021/03/21 00:41:31;;;;;;;14.57;12.43;;;6.20;99.90;;;;;;4862470;29;20183;-75
2021/03/21 00:43:58;;;;;;;14.88;11.60;;;6.30;99.90;;;;;;4872802;29;20325;-75
2021/03/21 00:46:25;;;;;;;14.10;12.65;;;6.30;99.90;;;;;;4880649;29;20562;-75
2021/03/21 00:48:52;;;;;;;16.17;13.20;;;6.20;99.90;;;;;;4880416;29;20329;-75
2021/03/21 00:51:19;;;;;;;16.50;12.52;;;6.20;99.90;;;;;;4880797;29;20220;-75
2021/03/21 00:53:46;;;;;;;16.00;13.25;;;6.30;99.90;;;;;;4863531;29;20698;-75
2021/03/21 00:56:32;;;;;;;15.32;13.00;;;6.20;99.90;;;;;;4861916;29;20214;-75
2021/03/21 00:58:59;;;;;;;18.45;13.38;;;6.20;99.90;;;;;;4862059;29;20317;-75
2021/03/21 01:01:28;;;;;;;16.15;14.05;;;6.20;99.90;;;;;;4862019;29;20255;-75
2021/03/21 01:03:55;;;;;;;16.48;13.93;;;6.20;99.90;;;;;;4861538;29;20709;-75
2021/03/21 01:06:21;;;;;;;14.23;12.82;;;6.20;99.90;;;;;;4861941;29;20271;-75
2021/03/21 01:08:59;;;;;;;14.90;12.27;;;6.20;99.90;;;;;;4861500;29;20222;-75
2021/03/21 01:11:29;;;;;;;14.10;12.60;;;6.30;99.90;;;;;;4862114;29;20239;-75
2021/03/21 01:13:56;;;;;;;14.95;12.10;;;6.30;99.90;;;;;;4871914;29;20802;-75
2021/03/21 01:16:29;;;;;;;16.02;13.15;;;6.30;99.90;;;;;;4880498;29;20254;-75
2021/03/21 01:18:56;;;;;;;14.85;12.20;;;6.30;99.90;;;;;;4878489;29;20294;-75
2021/03/21 01:21:24;;;;;;;14.30;12.20;;;6.30;99.90;;;;;;4870180;29;20319;-75
2021/03/21 01:23:51;;;;;;;17.63;13.93;;;6.30;99.90;;;;;;4861232;29;20318;-75
2021/03/21 01:26:20;;;;;;;16.73;13.10;;;6.30;99.90;;;;;;4860123;29;20286;-75
2021/03/21 01:28:47;;;;;;;17.63;13.90;;;6.20;99.90;;;;;;4870983;29;20278;-75
2021/03/21 01:31:17;;;;;;;15.52;13.45;;;6.20;99.90;;;;;;4880255;29;20214;-75
2021/03/21 01:33:45;;;;;;;15.55;13.35;;;6.10;99.90;;;;;;4879552;29;20226;-75
2021/03/21 01:36:27;;;;;;;16.95;13.60;;;6.10;99.90;;;;;;4877674;29;20214;-76
2021/03/21 01:38:55;;;;;;;18.13;13.20;;;6.20;99.90;;;;;;4860768;29;20797;-76
2021/03/21 01:41:28;;;;;;;16.92;14.20;;;6.10;99.90;;;;;;4861493;29;20282;-76
2021/03/21 01:43:55;;;;;;;17.48;13.43;;;6.10;99.90;;;;;;4860879;29;20227;-76
2021/03/21 01:46:36;;;;;;;18.63;14.63;;;6.00;99.90;;;;;;4844633;29;20698;-76
2021/03/21 01:49:27;;;;;;;18.83;13.43;;;6.10;99.90;;;;;;4860650;29;20218;-76
2021/03/21 01:51:56;;;;;;;16.50;14.70;;;6.10;99.90;;;;;;4860377;29;20192;-76
2021/03/21 01:54:23;;;;;;;16.63;12.98;;;6.10;99.90;;;;;;4859857;29;20276;-76
2021/03/21 01:56:51;;;;;;;16.13;12.73;;;6.10;99.90;;;;;;4844551;29;20244;-76
2021/03/21 01:59:22;;;;;;;16.80;15.00;;;6.00;99.90;;;;;;4860586;29;20249;-76
2021/03/21 02:01:50;;;;;;;15.50;11.18;;;6.10;99.90;;;;;;4844592;29;20575;-76
2021/03/21 02:04:18;;;;;;;18.27;12.07;;;6.10;99.90;;;;;;4860493;29;20714;-76
2021/03/21 02:07:19;;;;;;;16.70;12.38;;;6.00;99.90;;;;;;4859689;29;20310;-76
2021/03/21 02:10:04;;;;;;;16.73;13.50;;;6.00;99.90;;;;;;4860706;29;20218;-76
2021/03/21 02:12:43;;;;;;;15.65;11.40;;;5.90;99.90;;;;;;4860676;29;20631;-76
2021/03/21 02:15:12;;;;;;;13.48;11.35;;;5.90;99.90;;;;;;4860723;29;20217;-76
2021/03/21 02:17:44;;;;;;;15.93;11.95;;;5.90;99.90;;;;;;4843502;29;20248;-76
2021/03/21 02:20:19;;;;;;;16.58;12.13;;;5.90;99.90;;;;;;4860627;29;20179;-76
2021/03/21 02:22:46;;;;;;;13.27;11.57;;;6.00;99.90;;;;;;4860473;29;20223;-76
2021/03/21 02:25:43;;;;;;;13.98;11.60;;;6.00;99.90;;;;;;4860651;29;20207;-76
2021/03/21 02:28:38;;;;;;;14.82;11.23;;;6.00;99.90;;;;;;4843880;29;20275;-76
2021/03/21 02:31:21;;;;;;;16.05;10.65;;;6.00;99.90;;;;;;4860618;29;20639;-76
2021/03/21 02:33:57;;;;;;;13.60;10.52;;;6.00;99.90;;;;;;4860014;29;20243;-76
2021/03/21 02:36:47;;;;;;;14.32;11.82;;;6.00;99.90;;;;;;4860281;29;20239;-76
2021/03/21 02:39:39;;;;;;;14.52;12.57;;;6.00;99.90;;;;;;4859823;29;20234;-76
2021/03/21 02:42:16;;;;;;;12.23;10.93;;;6.00;99.90;;;;;;4859837;29;20195;-76
2021/03/21 02:44:57;;;;;;;14.90;11.23;;;6.00;99.90;;;;;;4861217;29;20238;-76
2021/03/21 02:47:28;;;;;;;13.32;11.93;;;6.00;99.90;;;;;;4859275;29;20231;-76
2021/03/21 02:50:03;;;;;;;13.05;11.35;;;6.00;99.90;;;;;;4859812;29;20282;-76
2021/03/21 02:52:38;;;;;;;21.13;12.75;;;6.00;99.90;;;;;;4859914;29;20663;-76
2021/03/21 02:55:33;;;;;;;19.10;13.93;;;5.90;99.90;;;;;;4843519;29;20229;-76
2021/03/21 02:58:15;;;;;;;21.90;15.48;;;5.90;99.90;;;;;;4843656;29;20745;-76
2021/03/21 03:00:48;;;;;;;16.23;12.90;;;5.90;99.90;;;;;;4843640;29;20210;-76
2021/03/21 03:03:19;;;;;;;19.00;13.55;;;5.90;99.90;;;;;;4874240;23;20227;-77
2021/03/21 03:05:51;;;;;;;20.13;14.60;;;5.90;99.90;;;;;;4839147;29;20307;-76
2021/03/21 03:08:32;;;;;;;18.45;14.20;;;5.90;99.90;;;;;;4833734;29;20223;-75
2021/03/21 03:11:11;;;;;;;21.10;15.55;;;5.90;99.90;;;;;;4828856;29;20234;-75
2021/03/21 03:13:56;;;;;;;17.73;14.13;;;5.90;99.90;;;;;;4838967;29;20255;-74
2021/03/21 03:16:36;;;;;;;16.98;14.15;;;6.00;99.90;;;;;;4828538;29;20205;-75
2021/03/21 03:19:12;;;;;;;18.55;14.25;;;5.90;99.90;;;;;;4859498;29;20697;-76
2021/03/21 03:21:53;;;;;;;20.38;15.60;;;6.00;99.90;;;;;;4853767;29;20222;-76
2021/03/21 03:24:34;;;;;;;19.98;14.20;;;6.00;99.90;;;;;;4851691;29;20784;-74
2021/03/21 03:27:12;;;;;;;17.75;14.90;;;6.00;99.90;;;;;;4828348;29;20276;-76
2021/03/21 03:29:57;;;;;;;19.25;15.23;;;6.00;99.90;;;;;;4843177;29;20255;-75
2021/03/21 03:32:28;;;;;;;18.75;14.07;;;6.00;99.90;;;;;;4859704;29;20223;-76
2021/03/21 03:34:57;;;;;;;19.00;14.38;;;6.00;99.90;;;;;;4843477;29;20199;-75
2021/03/21 03:37:26;;;;;;;17.92;13.98;;;6.00;99.90;;;;;;4843239;29;20638;-75
2021/03/21 03:39:52;;;;;;;21.52;14.57;;;5.90;99.90;;;;;;4860481;29;20183;-76
2021/03/21 03:43:00;;;;;;;19.20;14.52;;;5.90;99.90;;;;;;4859718;29;20246;-75
2021/03/21 03:45:47;;;;;;;22.17;14.98;;;5.90;99.90;;;;;;4843261;29;20677;-75
2021/03/21 03:48:35;;;;;;;18.17;13.57;;;5.90;99.90;;;;;;4860185;29;20234;-75
2021/03/21 03:51:10;;;;;;;23.42;13.98;;;5.90;99.90;;;;;;4860783;29;20215;-77
2021/03/21 03:54:11;;;;;;;18.20;14.30;;;5.80;99.90;;;;;;4841702;29;20306;-75
2021/03/21 03:57:02;;;;;;;22.23;16.23;;;5.80;99.90;;;;;;4843763;29;20199;-76
2021/03/21 04:00:11;;;;;;;19.73;13.43;;;5.80;99.90;;;;;;4859545;29;20225;-75
2021/03/21 04:02:53;;;;;;;23.25;16.35;;;5.80;99.90;;;;;;4840440;29;20276;-75
2021/03/21 04:05:35;;;;;;;24.15;15.70;;;5.80;99.90;;;;;;4851145;29;20239;-76
2021/03/21 04:08:14;;;;;;;24.67;17.05;;;5.80;99.90;;;;;;4845165;29;20693;-77
2021/03/21 04:10:54;;;;;;;22.63;15.40;;;5.80;99.90;;;;;;4847553;29;20249;-75
2021/03/21 04:13:42;;;;;;;26.27;16.98;;;5.80;99.90;;;;;;4845984;29;20226;-76
2021/03/21 04:16:17;;;;;;;25.52;17.52;;;5.80;99.90;;;;;;4862425;29;20226;-76
2021/03/21 04:19:01;;;;;;;23.10;16.80;;;5.80;99.90;;;;;;4862124;29;20643;-76
2021/03/21 04:21:35;;;;;;;26.92;17.17;;;5.80;99.90;;;;;;4864075;29;20191;-76
2021/03/21 04:24:29;;;;;;;27.52;17.80;;;5.80;99.90;;;;;;4829174;29;20590;-77
2021/03/21 04:27:05;;;;;;;26.65;16.75;;;5.70;99.90;;;;;;4827766;29;20218;-78
2021/03/21 04:29:51;;;;;;;29.52;17.63;;;5.80;99.90;;;;;;4861314;29;20676;-81
2021/03/21 04:32:22;;;;;;;29.00;18.02;;;5.80;99.90;;;;;;4863412;29;20698;-88
2021/03/21 04:34:54;;;;;;;31.10;19.38;;;5.80;99.90;;;;;;4849866;29;20221;-86
2021/03/21 04:37:22;;;;;;;28.85;19.25;;;5.70;99.90;;;;;;4844250;29;20223;-81
2021/03/21 04:39:53;;;;;;;28.73;18.05;;;5.70;99.90;;;;;;4829754;29;20222;-86
2021/03/21 04:42:28;;;;;;;34.22;21.65;;;5.70;99.90;;;;;;4829087;29;20239;-82
2021/03/21 04:45:03;;;;;;;29.90;20.33;;;5.70;99.90;;;;;;4847033;29;20237;-83
2021/03/21 04:47:37;;;;;;;33.70;18.48;;;5.70;99.90;;;;;;4847485;29;20230;-83
2021/03/21 04:50:04;;;;;;;32.25;18.55;;;5.70;99.90;;;;;;4848714;29;20642;-85
2021/03/21 04:52:46;;;;;;;29.33;19.17;;;5.70;99.90;;;;;;4842535;29;20219;-83
2021/03/21 04:55:38;;;;;;;28.73;18.58;;;5.70;99.90;;;;;;4845561;29;20215;-84
2021/03/21 04:58:14;;;;;;;31.27;21.05;;;5.70;99.90;;;;;;4851001;29;20246;-86
2021/03/21 05:00:44;;;;;;;28.13;18.35;;;5.70;99.90;;;;;;4864863;29;20187;-84
2021/03/21 05:03:36;;;;;;;34.28;21.08;;;5.80;99.90;;;;;;4846118;29;20353;-83
2021/03/21 05:06:44;;;;;;;28.55;19.77;;;5.80;99.90;;;;;;4861421;29;20334;-85
2021/03/21 05:09:22;;;;;;;28.55;18.50;;;5.80;99.90;;;;;;4821033;29;20223;-81
2021/03/21 05:12:17;;;;;;;34.03;21.83;;;5.80;99.90;;;;;;4844382;29;20195;-81
2021/03/21 05:14:58;;;;;;;31.73;21.35;;;5.80;99.90;;;;;;4844620;29;20770;-75
2021/03/21 05:17:40;;;;;;;32.47;21.75;;;5.80;99.90;;;;;;4831461;29;20251;-80
2021/03/21 05:20:22;;;;;;;36.50;21.50;;;5.80;99.90;;;;;;4847022;29;20196;-78
2021/03/21 05:22:55;;;;;;;34.72;22.30;;;5.80;99.90;;;;;;4830170;29;20219;-80
2021/03/21 05:25:39;;;;;;;32.53;20.98;;;5.80;99.90;;;;;;4845545;29;20287;-80
2021/03/21 05:28:15;;;;;;;34.33;21.30;;;5.80;99.90;;;;;;4844092;29;20242;-82
2021/03/21 05:30:58;;;;;;;31.42;21.30;;;5.80;99.90;;;;;;4846803;29;20199;-82
2021/03/21 05:33:25;;;;;;;32.95;20.98;;;5.80;99.90;;;;;;4862010;29;20650;-81
2021/03/21 05:35:54;;;;;;;33.45;21.33;;;5.80;99.90;;;;;;4845775;29;20231;-79
2021/03/21 05:38:45;;;;;;;31.70;22.25;;;5.80;99.90;;;;;;4862272;29;20251;-82
2021/03/21 05:41:49;;;;;;;28.83;19.83;;;5.80;99.90;;;;;;4862809;29;20187;-81
2021/03/21 05:44:43;;;;;;;30.75;18.80;;;5.80;99.90;;;;;;4834313;29;20230;-80
2021/03/21 05:47:39;;;;;;;28.77;19.75;;;5.80;99.90;;;;;;4845340;29;20761;-80
2021/03/21 05:50:27;;;;;;;31.60;20.27;;;5.80;99.90;;;;;;4846073;29;20192;-81
2021/03/21 05:53:25;;;;;;;33.20;21.55;;;5.80;99.90;;;;;;4844831;29;20227;-79
2021/03/21 05:56:30;;;;;;;34.40;22.50;;;5.80;99.90;;;;;;4835106;29;20239;-80
2021/03/21 05:59:32;;;;;;;31.65;21.30;;;5.80;99.90;;;;;;4826827;29;20315;-80
2021/03/21 06:02:22;;;;;;;27.73;19.30;;;5.80;99.90;;;;;;4841912;29;20287;-79
2021/03/21 06:05:35;;;;;;;30.77;21.85;;;5.90;99.90;;;;;;4834982;29;20266;-81
2021/03/21 06:08:04;;;;;;;33.20;21.10;;;5.90;99.90;;;;;;4844822;29;20287;-81
2021/03/21 06:11:28;;;;;;;30.98;20.90;;;5.90;99.90;;;;;;4863170;29;20395;-77
2021/03/21 06:14:15;;;;;;;34.67;20.95;;;5.90;99.90;;;;;;4839541;29;20223;-81
2021/03/21 06:17:24;;;;;;;33.03;21.42;;;5.90;99.90;;;;;;4825737;29;20558;-84
2021/03/21 06:20:09;;;;;;;30.10;21.10;;;6.00;99.90;;;;;;4824600;29;20301;-84
2021/03/21 06:22:59;;;;;;;29.50;21.77;;;5.90;99.90;;;;;;4845098;29;20275;-85
2021/03/21 06:25:51;;;;;;;33.40;22.05;;;5.90;99.90;;;;;;4859121;29;20223;-83
2021/03/21 06:28:49;;;;;;;33.38;21.73;;;6.00;99.90;;;;;;4838679;29;20256;-86
2021/03/21 06:31:24;;;;;;;29.45;20.42;;;6.00;99.90;;;;;;4843124;29;20196;-83
2021/03/21 06:34:12;;;;;;;34.60;22.10;;;6.00;99.90;;;;;;4826503;29;20663;-86
2021/03/21 06:37:07;;;;;;;38.25;22.45;;;6.00;99.90;;;;;;4847729;29;20187;-83
2021/03/21 06:39:59;;;;;;;36.53;23.10;;;6.00;99.90;;;;;;4844628;29;20234;-82
2021/03/21 06:42:33;;;;;;;32.17;20.95;;;6.00;99.90;;;;;;4844704;29;20627;-81
2021/03/21 06:45:33;;;;;;;29.65;21.33;;;6.00;99.90;;;;;;4841477;29;20267;-81
2021/03/21 06:48:12;;;;;;;35.85;20.65;;;6.00;99.90;;;;;;4843043;29;20647;-82
2021/03/21 06:51:01;;;;;;;32.08;19.95;;;6.10;99.90;;;;;;4828469;29;20200;-83
2021/03/21 06:53:49;;;;;;;30.75;20.67;;;6.00;99.90;;;;;;4827613;29;20228;-80
2021/03/21 06:56:42;;;;;;;31.80;19.85;;;6.10;99.90;;;;;;4811915;29;20234;-82
2021/03/21 06:59:46;;;;;;;30.45;20.88;;;6.10;99.90;;;;;;4856861;29;20263;-82
2021/03/21 07:02:37;;;;;;;30.35;18.30;;;6.10;99.90;;;;;;4861979;29;20231;-79
2021/03/21 07:05:42;;;;;;;31.73;20.20;;;6.10;99.90;;;;;;4844997;29;20567;-80
2021/03/21 07:08:53;;;;;;;30.40;19.75;;;6.10;99.90;;;;;;4841936;29;20283;-78
2021/03/21 07:11:44;;;;;;;31.67;21.42;;;6.20;99.90;;;;;;4825649;29;20286;-83
2021/03/21 07:14:28;;;;;;;32.95;21.10;;;6.10;99.90;;;;;;4839596;29;20227;-81
2021/03/21 07:17:20;;;;;;;32.50;21.65;;;6.10;99.90;;;;;;4844241;29;20195;-79
2021/03/21 07:19:59;;;;;;;34.90;22.40;;;6.10;99.90;;;;;;4841356;29;20310;-77
2021/03/21 07:22:40;;;;;;;34.72;20.83;;;6.20;99.90;;;;;;4843144;29;20219;-79
2021/03/21 07:25:22;;;;;;;32.33;21.27;;;6.20;99.90;;;;;;4845786;29;20301;-81
2021/03/21 07:27:55;;;;;;;35.63;21.17;;;6.20;99.90;;;;;;4843912;29;20238;-79
2021/03/21 07:30:44;;;;;;;40.60;24.83;;;6.20;99.90;;;;;;4830940;29;20255;-79
2021/03/21 07:33:17;;;;;;;39.30;23.88;;;6.30;99.90;;;;;;4862027;29;20662;-79
2021/03/21 07:36:00;;;;;;;40.60;23.60;;;6.20;99.90;;;;;;4845083;29;20574;-79
2021/03/21 07:38:54;;;;;;;37.63;24.05;;;6.20;99.90;;;;;;4862213;29;20227;-78
2021/03/21 07:41:39;;;;;;;39.00;23.85;;;6.20;99.90;;;;;;4846280;29;20550;-78
2021/03/21 07:44:42;;;;;;;42.03;25.45;;;6.20;99.90;;;;;;4844342;29;20227;-78
2021/03/21 07:47:27;;;;;;;45.70;24.15;;;6.20;99.90;;;;;;4845113;29;20211;-78
2021/03/21 07:50:20;;;;;;;39.13;22.73;;;6.30;99.90;;;;;;4846117;29;20256;-79
2021/03/21 07:53:02;;;;;;;38.50;20.92;;;6.30;99.90;;;;;;4843893;29;20267;-78
2021/03/21 07:55:49;;;;;;;35.17;19.13;;;6.40;99.90;;;;;;4843515;29;20651;-77
2021/03/21 07:58:26;;;;;;;37.47;22.13;;;6.40;99.90;;;;;;4844114;29;20286;-75
2021/03/21 08:00:53;;;;;;;32.15;19.55;;;6.50;99.90;;;;;;4861544;29;20669;-78
2021/03/21 08:03:25;;;;;;;39.22;21.90;;;6.50;99.90;;;;;;4859904;29;20283;-76
2021/03/21 08:05:55;;;;;;;30.67;19.70;;;6.50;99.90;;;;;;4843248;29;20234;-76
2021/03/21 08:08:25;;;;;;;31.65;20.50;;;6.60;99.90;;;;;;4857497;29;20287;-77
2021/03/21 08:10:56;;;;;;;32.47;19.17;;;6.60;99.90;;;;;;4844919;29;20187;-78
2021/03/21 08:13:44;;;;;;;31.67;18.10;;;6.70;99.90;;;;;;4861044;29;20283;-74
2021/03/21 08:16:28;;;;;;;30.75;17.70;;;6.60;99.90;;;;;;4843683;29;20222;-74
2021/03/21 08:18:57;;;;;;;28.30;17.15;;;6.70;99.90;;;;;;4842847;29;20222;-76
2021/03/21 08:21:31;;;;;;;25.38;15.70;;;6.70;99.90;;;;;;4842881;29;20199;-76
2021/03/21 08:24:02;;;;;;;25.83;14.55;;;6.80;99.90;;;;;;4859910;29;20227;-75
2021/03/21 08:26:32;;;;;;;22.52;14.10;;;6.80;99.90;;;;;;4842523;29;20219;-75
2021/03/21 08:29:07;;;;;;;21.23;13.05;;;6.80;99.90;;;;;;4842555;29;20287;-80
2021/03/21 08:31:36;;;;;;;22.55;13.70;;;6.80;99.90;;;;;;4828052;29;20195;-74
2021/03/21 08:34:29;;;;;;;22.65;13.70;;;6.80;99.90;;;;;;4842526;29;20223;-75
2021/03/21 08:37:02;;;;;;;17.88;11.98;;;6.90;99.90;;;;;;4857859;29;20240;-75
2021/03/21 08:39:35;;;;;;;17.35;10.45;;;7.00;99.90;;;;;;4829783;29;20203;-76
2021/03/21 08:42:03;;;;;;;14.50;9.68;;;7.00;99.90;;;;;;4843119;29;20192;-75
2021/03/21 08:44:38;;;;;;;14.02;9.63;;;7.00;99.90;;;;;;4860626;29;20258;-75
2021/03/21 08:47:14;;;;;;;19.42;9.43;;;7.10;99.90;;;;;;4859004;29;20279;-75
2021/03/21 08:49:47;;;;;;;15.85;8.73;;;7.00;99.90;;;;;;4847699;29;20286;-76
2021/03/21 08:52:49;;;;;;;14.23;7.55;;;7.00;99.90;;;;;;4846190;29;20243;-77
2021/03/21 08:55:35;;;;;;;14.18;8.38;;;7.00;99.90;;;;;;4824116;29;20215;-75
2021/03/21 08:58:25;;;;;;;10.73;7.07;;;6.90;99.90;;;;;;4842538;29;20219;-75
2021/03/21 09:00:54;;;;;;;11.35;6.20;;;6.90;99.90;;;;;;4835849;29;20199;-75
2021/03/21 09:03:40;;;;;;;11.75;6.97;;;7.00;99.90;;;;;;4845185;29;20660;-75
2021/03/21 09:06:11;;;;;;;13.65;6.38;;;7.00;99.90;;;;;;4839169;29;20225;-75
2021/03/21 09:08:37;;;;;;;9.25;6.43;;;7.10;99.90;;;;;;4863019;29;20221;-75
2021/03/21 09:11:06;;;;;;;11.45;5.40;;;7.10;99.90;;;;;;4845595;29;20365;-76
2021/03/21 09:13:35;;;;;;;10.10;6.53;;;7.00;99.90;;;;;;4836919;29;20254;-75
2021/03/21 09:16:11;;;;;;;9.57;6.90;;;7.10;99.90;;;;;;4842772;29;20226;-75
2021/03/21 09:18:43;;;;;;;8.63;6.82;;;7.20;99.90;;;;;;4825345;29;20219;-76
2021/03/21 09:21:27;;;;;;;12.27;6.53;;;7.20;99.90;;;;;;4863798;29;20195;-76
2021/03/21 09:24:00;;;;;;;12.52;7.20;;;7.30;99.90;;;;;;4837177;29;20227;-75
2021/03/21 09:26:47;;;;;;;10.75;6.82;;;7.20;99.90;;;;;;4863193;29;20211;-75
2021/03/21 09:29:31;;;;;;;8.35;5.28;;;7.20;99.90;;;;;;4843241;29;20698;-76
2021/03/21 09:32:05;;;;;;;7.95;5.80;;;7.10;99.90;;;;;;4862959;29;20195;-75
2021/03/21 09:34:59;;;;;;;8.80;5.28;;;7.10;99.90;;;;;;4847231;29;20246;-74
2021/03/21 09:37:34;;;;;;;5.43;3.80;;;7.10;99.90;;;;;;4845030;29;20288;-75
2021/03/21 09:40:07;;;;;;;8.40;4.28;;;7.10;99.90;;;;;;4843512;29;20199;-75
2021/03/21 09:42:36;;;;;;;4.88;3.97;;;7.10;99.90;;;;;;4830627;29;20215;-76
2021/03/21 09:45:05;;;;;;;4.85;4.10;;;7.10;99.90;;;;;;4857732;29;20220;-75
2021/03/21 09:47:44;;;;;;;8.75;2.97;;;7.00;99.90;;;;;;4860513;29;20247;-75
2021/03/21 09:50:38;;;;;;;5.93;3.80;;;7.00;99.90;;;;;;4861253;29;20199;-75
2021/03/21 09:53:34;;;;;;;5.30;3.22;;;7.00;99.90;;;;;;4852866;29;20232;-76
2021/03/21 09:56:12;;;;;;;8.38;3.10;;;7.10;99.90;;;;;;4827854;29;20288;-74
2021/03/21 09:58:47;;;;;;;6.90;3.55;;;7.20;99.90;;;;;;4861907;29;20226;-75
2021/03/21 10:01:46;;;;;;;6.22;3.97;;;7.20;99.90;;;;;;4845707;29;20225;-75
2021/03/21 10:04:52;;;;;;;5.20;3.53;;;7.20;99.90;;;;;;4847018;29;20218;-75
2021/03/21 10:07:26;;;;;;;4.10;3.00;;;7.20;99.90;;;;;;4842645;29;20333;-75
2021/03/21 10:09:56;;;;;;;5.25;2.85;;;7.30;99.90;;;;;;4846534;29;20681;-75
2021/03/21 10:12:23;;;;;;;4.30;2.45;;;7.30;99.90;;;;;;4860664;29;20559;-75
2021/03/21 10:14:59;;;;;;;2.70;2.35;;;7.30;99.90;;;;;;4842840;29;20211;-75
2021/03/21 10:17:31;;;;;;;6.38;1.77;;;7.30;99.90;;;;;;4841836;29;20250;-75
2021/03/21 10:20:00;;;;;;;4.75;2.35;;;7.20;99.90;;;;;;4860689;29;20203;-73
2021/03/21 10:22:27;;;;;;;2.13;1.60;;;7.30;99.90;;;;;;4845496;29;20286;-76
2021/03/21 10:25:00;;;;;;;3.85;2.00;;;7.30;99.90;;;;;;4851446;29;20215;-75
2021/03/21 10:27:40;;;;;;;5.45;1.60;;;7.30;99.90;;;;;;4827283;29;20232;-74
2021/03/21 10:30:18;;;;;;;5.13;1.30;;;7.30;99.90;;;;;;4860749;29;20202;-75
2021/03/21 10:33:12;;;;;;;8.00;1.75;;;7.30;99.90;;;;;;4845881;29;20227;-74
2021/03/21 10:35:52;;;;;;;3.83;1.40;;;7.30;99.90;;;;;;4843515;29;20211;-73
2021/03/21 10:38:55;;;;;;;8.95;2.35;;;7.30;99.90;;;;;;4842754;29;20283;-75
2021/03/21 10:41:54;;;;;;;7.53;1.83;;;7.40;99.90;;;;;;4838960;29;20210;-75
2021/03/21 10:44:43;;;;;;;7.30;1.95;;;7.40;99.90;;;;;;4859501;29;20261;-74
2021/03/21 10:47:22;;;;;;;6.05;1.80;;;7.50;99.90;;;;;;4842526;29;20716;-77
2021/03/21 10:50:14;;;;;;;6.78;2.42;;;7.50;99.90;;;;;;4844412;29;20199;-75
2021/03/21 10:52:45;;;;;;;3.88;2.08;;;7.50;99.90;;;;;;4841764;29;20223;-74
2021/03/21 10:55:11;;;;;;;8.82;2.53;;;7.60;99.90;;;;;;4859117;29;20238;-76
2021/03/21 10:57:56;;;;;;;8.82;2.08;;;7.50;99.90;;;;;;4858659;29;20246;-73
2021/03/21 11:00:32;;;;;;;6.57;2.13;;;7.50;99.90;;;;;;4844044;29;20674;-74
2021/03/21 11:02:59;;;;;;;7.13;2.25;;;7.50;99.90;;;;;;4843324;29;20602;-73
2021/03/21 11:05:46;;;;;;;6.90;2.55;;;7.60;99.90;;;;;;4844511;29;20577;-75
2021/03/21 11:08:13;;;;;;;4.60;2.08;;;7.60;99.90;;;;;;4842350;29;20283;-75
2021/03/21 11:10:51;;;;;;;7.85;2.92;;;7.50;99.90;;;;;;4843124;29;20204;-75
2021/03/21 11:13:28;;;;;;;8.18;2.70;;;7.50;99.90;;;;;;4859283;29;20321;-76
2021/03/21 11:15:55;;;;;;;5.55;2.20;;;7.50;99.90;;;;;;4843911;29;20756;-73
2021/03/21 11:18:31;;;;;;;5.82;2.03;;;7.50;99.90;;;;;;4842568;29;20238;-74
2021/03/21 11:21:06;;;;;;;11.57;2.42;;;7.50;99.90;;;;;;4859761;29;20259;-76
2021/03/21 11:23:41;;;;;;;10.00;2.78;;;7.50;99.90;;;;;;4858631;29;20636;-75
2021/03/21 11:26:29;;;;;;;8.50;2.70;;;7.60;99.90;;;;;;4857615;29;20210;-75
2021/03/21 11:29:05;;;;;;;10.55;2.38;;;7.60;99.90;;;;;;4835184;29;20227;-74
2021/03/21 11:31:37;;;;;;;7.72;2.85;;;7.60;99.90;;;;;;4843190;29;20269;-74
2021/03/21 11:34:24;;;;;;;11.20;2.75;;;7.70;99.90;;;;;;4857718;29;20215;-74
2021/03/21 11:36:58;;;;;;;10.13;2.95;;;7.60;99.90;;;;;;4856372;29;20209;-74
2021/03/21 11:39:31;;;;;;;9.95;3.33;;;7.60;99.90;;;;;;4857568;29;20219;-75
2021/03/21 11:41:58;;;;;;;10.70;3.05;;;7.70;99.90;;;;;;4847664;29;20199;-75
2021/03/21 11:44:30;;;;;;;6.18;2.25;;;7.60;99.90;;;;;;4856993;29;20215;-74
2021/03/21 11:47:22;;;;;;;7.53;2.10;;;7.70;99.90;;;;;;4842296;29;20226;-74
2021/03/21 11:49:50;;;;;;;8.45;2.78;;;7.80;99.90;;;;;;4830039;29;20213;-74
2021/03/21 11:52:17;;;;;;;8.68;2.80;;;7.80;99.90;;;;;;4854550;29;20224;-76
2021/03/21 11:54:46;;;;;;;9.02;3.03;;;7.90;99.90;;;;;;4836493;29;20214;-74
2021/03/21 11:57:55;;;;;;;10.25;3.28;;;7.90;99.90;;;;;;4858439;29;20187;-75
2021/03/21 12:00:31;;;;;;;13.65;4.13;;;7.90;99.90;;;;;;4858193;29;20224;-75
2021/03/21 12:03:07;;;;;;;11.25;3.55;;;7.90;99.90;;;;;;4838193;29;20691;-75
2021/03/21 12:05:38;;;;;;;10.00;3.33;;;7.80;99.90;;;;;;4857452;29;20242;-74
2021/03/21 12:08:23;;;;;;;5.93;2.75;;;7.80;99.90;;;;;;4842053;29;20685;-74
2021/03/21 12:10:52;;;;;;;6.53;2.88;;;7.80;99.90;;;;;;4842252;29;20282;-74
2021/03/21 12:13:34;;;;;;;11.77;3.00;;;7.80;99.90;;;;;;4838220;29;20247;-74
2021/03/21 12:16:02;;;;;;;7.55;2.47;;;7.90;99.90;;;;;;4858122;29;20284;-73
2021/03/21 12:18:31;;;;;;;9.88;3.35;;;8.00;99.90;;;;;;4840818;29;20223;-75
2021/03/21 12:21:15;;;;;;;4.82;2.95;;;8.00;99.90;;;;;;4859387;29;20195;-75
2021/03/21 12:24:04;;;;;;;11.85;3.00;;;8.10;99.90;;;;;;4855937;29;20282;-75
2021/03/21 12:26:31;;;;;;;8.95;2.47;;;8.10;99.90;;;;;;4860668;29;20396;-75
2021/03/21 12:29:23;;;;;;;14.68;3.85;;;8.10;99.90;;;;;;4861297;29;20223;-75
2021/03/21 12:32:12;;;;;;;8.32;2.92;;;8.10;99.90;;;;;;4845883;29;20196;-75
2021/03/21 12:34:47;;;;;;;17.88;4.60;;;8.10;99.90;;;;;;4844547;29;20279;-74
2021/03/21 12:37:28;;;;;;;9.57;3.60;;;8.10;99.90;;;;;;4844593;29;20237;-74
2021/03/21 12:40:04;;;;;;;12.63;4.47;;;8.00;99.90;;;;;;4862573;29;20646;-75
2021/03/21 12:42:38;;;;;;;17.92;3.85;;;8.00;99.90;;;;;;4861775;29;20218;-75
2021/03/21 12:45:17;;;;;;;11.43;3.60;;;8.00;99.90;;;;;;4844813;29;20735;-75
2021/03/21 12:47:47;;;;;;;10.05;4.20;;;7.90;99.90;;;;;;4845117;29;20229;-76
2021/03/21 12:50:32;;;;;;;11.23;5.03;;;7.90;99.90;;;;;;4831094;29;20662;-75
2021/03/21 12:53:00;;;;;;;12.77;3.78;;;8.00;99.90;;;;;;4843735;29;20229;-75
2021/03/21 12:55:27;;;;;;;20.52;4.63;;;8.00;99.90;;;;;;4845175;29;20243;-75
2021/03/21 12:57:58;;;;;;;19.98;4.65;;;8.00;99.90;;;;;;4844649;29;20258;-74
2021/03/21 13:00:31;;;;;;;11.07;3.83;;;8.10;99.90;;;;;;4844872;29;20202;-74
2021/03/21 13:03:02;;;;;;;17.88;4.90;;;8.10;99.90;;;;;;4844798;29;20223;-75
2021/03/21 13:05:40;;;;;;;12.57;3.78;;;8.10;99.90;;;;;;4860445;29;20305;-75
2021/03/21 13:08:08;;;;;;;11.48;3.72;;;8.10;99.90;;;;;;4828012;29;20732;-73
2021/03/21 13:10:37;;;;;;;23.23;4.85;;;8.20;99.90;;;;;;4829430;29;20191;-75
2021/03/21 13:13:08;;;;;;;18.10;4.38;;;8.20;99.90;;;;;;4860880;29;20314;-75
2021/03/21 13:15:36;;;;;;;19.48;5.07;;;8.20;99.90;;;;;;4844833;29;20215;-74
2021/03/21 13:18:04;;;;;;;16.60;4.95;;;8.20;99.90;;;;;;4859744;29;20231;-76
2021/03/21 13:20:32;;;;;;;12.60;4.60;;;8.20;99.90;;;;;;4859655;29;20215;-75
2021/03/21 13:22:59;;;;;;;16.58;4.43;;;8.20;99.90;;;;;;4843186;29;20246;-75
2021/03/21 13:25:28;;;;;;;17.63;5.30;;;8.20;99.90;;;;;;4860380;29;20259;-76
2021/03/21 13:27:59;;;;;;;21.02;5.25;;;8.20;99.90;;;;;;4841434;29;20314;-75
2021/03/21 13:30:30;;;;;;;13.70;4.80;;;8.20;99.90;;;;;;4861295;29;20194;-75
2021/03/21 13:32:57;;;;;;;9.48;3.88;;;8.30;99.90;;;;;;4860791;29;20245;-75
2021/03/21 13:35:26;;;;;;;21.42;6.30;;;8.30;99.90;;;;;;4860191;29;20212;-75
2021/03/21 13:37:53;;;;;;;12.43;5.07;;;8.30;99.90;;;;;;4860265;29;20246;-75
2021/03/21 13:40:27;;;;;;;13.02;3.40;;;8.40;99.90;;;;;;4829259;29;20716;-75
2021/03/21 13:42:57;;;;;;;13.75;4.13;;;8.40;99.90;;;;;;4860336;29;20233;-74